sensor_id;sensor_type;location;lat;lon;timestamp;temperature;humidity
56478;DHT22;42382;53.210;5.772;2023-02-28T00:00:21;4.60;83.60
56478;DHT22;42382;53.210;5.772;2023-02-28T00:02:47;4.60;83.60
56478;DHT22;42382;53.210;5.772;2023-02-28T00:05:16;4.60;83.60
56478;DHT22;42382;53.210;5.772;2023-02-28T00:07:42;4.60;83.70
56478;DHT22;42382;53.210;5.772;2023-02-28T00:10:11;4.50;83.70
56478;DHT22;42382;53.210;5.772;2023-02-28T00:12:37;4.60;83.80
56478;DHT22;42382;53.210;5.772;2023-02-28T00:15:06;4.50;83.70
56478;DHT22;42382;53.210;5.772;2023-02-28T00:17:32;4.50;83.80
56478;DHT22;42382;53.210;5.772;2023-02-28T00:19:57;4.50;83.80
56478;DHT22;42382;53.210;5.772;2023-02-28T00:22:35;4.50;83.80
56478;DHT22;42382;53.210;5.772;2023-02-28T00:25:02;4.50;83.90
56478;DHT22;42382;53.210;5.772;2023-02-28T00:27:27;4.50;83.80
56478;DHT22;42382;53.210;5.772;2023-02-28T00:29:53;4.50;83.80
56478;DHT22;42382;53.210;5.772;2023-02-28T00:32:19;4.50;83.90
56478;DHT22;42382;53.210;5.772;2023-02-28T00:34:45;4.50;83.90
56478;DHT22;42382;53.210;5.772;2023-02-28T00:37:11;4.50;83.90
56478;DHT22;42382;53.210;5.772;2023-02-28T00:39:40;4.50;84.00
56478;DHT22;42382;53.210;5.772;2023-02-28T00:42:07;4.50;84.10
56478;DHT22;42382;53.210;5.772;2023-02-28T00:44:32;4.50;84.00
56478;DHT22;42382;53.210;5.772;2023-02-28T00:46:59;4.50;84.10
56478;DHT22;42382;53.210;5.772;2023-02-28T00:49:26;4.50;84.20
56478;DHT22;42382;53.210;5.772;2023-02-28T00:51:52;4.50;84.20
56478;DHT22;42382;53.210;5.772;2023-02-28T00:54:19;4.50;84.20
56478;DHT22;42382;53.210;5.772;2023-02-28T00:56:45;4.60;84.30
56478;DHT22;42382;53.210;5.772;2023-02-28T00:59:12;4.60;84.30
56478;DHT22;42382;53.210;5.772;2023-02-28T01:01:38;4.50;84.30
56478;DHT22;42382;53.210;5.772;2023-02-28T01:04:04;4.50;84.30
56478;DHT22;42382;53.210;5.772;2023-02-28T01:06:30;4.60;84.40
56478;DHT22;42382;53.210;5.772;2023-02-28T01:08:55;4.60;84.40
56478;DHT22;42382;53.210;5.772;2023-02-28T01:11:21;4.60;84.40
56478;DHT22;42382;53.210;5.772;2023-02-28T01:13:47;4.50;84.40
56478;DHT22;42382;53.210;5.772;2023-02-28T01:16:13;4.60;84.50
56478;DHT22;42382;53.210;5.772;2023-02-28T01:18:39;4.60;84.50
56478;DHT22;42382;53.210;5.772;2023-02-28T01:21:09;4.60;84.50
56478;DHT22;42382;53.210;5.772;2023-02-28T01:23:35;4.60;84.60
56478;DHT22;42382;53.210;5.772;2023-02-28T01:26:12;4.60;84.50
56478;DHT22;42382;53.210;5.772;2023-02-28T01:28:38;4.60;84.60
56478;DHT22;42382;53.210;5.772;2023-02-28T01:31:04;4.60;84.50
56478;DHT22;42382;53.210;5.772;2023-02-28T01:33:31;4.60;84.60
56478;DHT22;42382;53.210;5.772;2023-02-28T01:36:08;4.60;84.60
56478;DHT22;42382;53.210;5.772;2023-02-28T01:38:34;4.60;84.70
56478;DHT22;42382;53.210;5.772;2023-02-28T01:41:00;4.60;84.70
56478;DHT22;42382;53.210;5.772;2023-02-28T01:43:31;4.60;84.70
56478;DHT22;42382;53.210;5.772;2023-02-28T01:45:58;4.60;84.80
56478;DHT22;42382;53.210;5.772;2023-02-28T01:48:31;4.60;84.80
56478;DHT22;42382;53.210;5.772;2023-02-28T01:51:02;4.60;84.90
56478;DHT22;42382;53.210;5.772;2023-02-28T01:53:34;4.60;84.90
56478;DHT22;42382;53.210;5.772;2023-02-28T01:56:06;4.60;84.90
56478;DHT22;42382;53.210;5.772;2023-02-28T01:58:32;4.60;85.00
56478;DHT22;42382;53.210;5.772;2023-02-28T02:00:58;4.60;85.00
56478;DHT22;42382;53.210;5.772;2023-02-28T02:03:24;4.60;85.00
56478;DHT22;42382;53.210;5.772;2023-02-28T02:05:50;4.60;85.10
56478;DHT22;42382;53.210;5.772;2023-02-28T02:08:23;4.60;85.20
56478;DHT22;42382;53.210;5.772;2023-02-28T02:10:59;4.60;85.20
56478;DHT22;42382;53.210;5.772;2023-02-28T02:27:26;4.60;85.50
56478;DHT22;42382;53.210;5.772;2023-02-28T02:35:41;4.60;85.60
56478;DHT22;42382;53.210;5.772;2023-02-28T02:38:29;4.60;85.50
56478;DHT22;42382;53.210;5.772;2023-02-28T02:41:28;4.60;85.70
56478;DHT22;42382;53.210;5.772;2023-02-28T02:46:42;4.60;85.70
56478;DHT22;42382;53.210;5.772;2023-02-28T02:49:13;4.70;85.70
56478;DHT22;42382;53.210;5.772;2023-02-28T02:51:41;4.70;85.70
56478;DHT22;42382;53.210;5.772;2023-02-28T02:54:28;4.70;85.80
56478;DHT22;42382;53.210;5.772;2023-02-28T02:56:57;4.70;85.80
56478;DHT22;42382;53.210;5.772;2023-02-28T02:59:24;4.80;85.80
56478;DHT22;42382;53.210;5.772;2023-02-28T03:01:57;4.80;85.80
56478;DHT22;42382;53.210;5.772;2023-02-28T03:04:25;4.80;86.00
56478;DHT22;42382;53.210;5.772;2023-02-28T03:06:53;4.80;85.90
56478;DHT22;42382;53.210;5.772;2023-02-28T03:09:21;4.80;86.00
56478;DHT22;42382;53.210;5.772;2023-02-28T03:11:47;4.90;86.00
56478;DHT22;42382;53.210;5.772;2023-02-28T03:23:23;4.90;86.20
56478;DHT22;42382;53.210;5.772;2023-02-28T03:26:06;4.90;86.30
56478;DHT22;42382;53.210;5.772;2023-02-28T03:28:59;4.90;86.30
56478;DHT22;42382;53.210;5.772;2023-02-28T03:31:41;4.90;86.40
56478;DHT22;42382;53.210;5.772;2023-02-28T03:34:19;4.90;86.30
56478;DHT22;42382;53.210;5.772;2023-02-28T03:36:53;4.90;86.40
56478;DHT22;42382;53.210;5.772;2023-02-28T03:42:04;4.90;86.40
56478;DHT22;42382;53.210;5.772;2023-02-28T03:44:39;4.90;86.50
56478;DHT22;42382;53.210;5.772;2023-02-28T03:47:13;4.90;86.50
56478;DHT22;42382;53.210;5.772;2023-02-28T03:49:48;4.90;86.50
56478;DHT22;42382;53.210;5.772;2023-02-28T03:52:18;4.90;86.60
56478;DHT22;42382;53.210;5.772;2023-02-28T03:54:53;4.90;86.50
56478;DHT22;42382;53.210;5.772;2023-02-28T04:00:21;4.90;86.70
56478;DHT22;42382;53.210;5.772;2023-02-28T04:02:49;4.90;86.80
56478;DHT22;42382;53.210;5.772;2023-02-28T04:05:21;4.90;86.70
56478;DHT22;42382;53.210;5.772;2023-02-28T04:07:47;5.00;86.80
56478;DHT22;42382;53.210;5.772;2023-02-28T04:10:16;5.00;86.80
56478;DHT22;42382;53.210;5.772;2023-02-28T04:12:41;5.00;86.80
56478;DHT22;42382;53.210;5.772;2023-02-28T04:15:07;5.00;86.80
56478;DHT22;42382;53.210;5.772;2023-02-28T04:17:33;5.00;86.90
56478;DHT22;42382;53.210;5.772;2023-02-28T04:19:59;5.10;86.90
56478;DHT22;42382;53.210;5.772;2023-02-28T04:22:24;5.10;87.00
56478;DHT22;42382;53.210;5.772;2023-02-28T04:24:53;5.10;87.10
56478;DHT22;42382;53.210;5.772;2023-02-28T04:27:20;5.10;87.10
56478;DHT22;42382;53.210;5.772;2023-02-28T04:29:46;5.10;87.00
56478;DHT22;42382;53.210;5.772;2023-02-28T04:32:12;5.10;87.20
56478;DHT22;42382;53.210;5.772;2023-02-28T04:34:38;5.10;87.20
56478;DHT22;42382;53.210;5.772;2023-02-28T04:37:05;5.10;87.20
56478;DHT22;42382;53.210;5.772;2023-02-28T04:39:34;5.10;87.30
56478;DHT22;42382;53.210;5.772;2023-02-28T04:42:00;5.10;87.30
56478;DHT22;42382;53.210;5.772;2023-02-28T04:44:25;5.10;87.30
56478;DHT22;42382;53.210;5.772;2023-02-28T04:46:51;5.20;87.40
56478;DHT22;42382;53.210;5.772;2023-02-28T04:49:16;5.10;87.40
56478;DHT22;42382;53.210;5.772;2023-02-28T04:51:42;5.10;87.40
56478;DHT22;42382;53.210;5.772;2023-02-28T04:54:08;5.10;87.50
56478;DHT22;42382;53.210;5.772;2023-02-28T04:56:34;5.20;87.50
56478;DHT22;42382;53.210;5.772;2023-02-28T04:58:59;5.20;87.50
56478;DHT22;42382;53.210;5.772;2023-02-28T05:01:33;5.20;87.60
56478;DHT22;42382;53.210;5.772;2023-02-28T05:04:01;5.30;87.80
56478;DHT22;42382;53.210;5.772;2023-02-28T05:06:29;5.30;87.70
56478;DHT22;42382;53.210;5.772;2023-02-28T05:08:56;5.30;87.70
56478;DHT22;42382;53.210;5.772;2023-02-28T05:11:30;5.30;87.70
56478;DHT22;42382;53.210;5.772;2023-02-28T05:14:00;5.30;87.80
56478;DHT22;42382;53.210;5.772;2023-02-28T05:16:27;5.30;87.80
56478;DHT22;42382;53.210;5.772;2023-02-28T05:18:52;5.30;87.80
56478;DHT22;42382;53.210;5.772;2023-02-28T05:21:51;5.30;87.90
56478;DHT22;42382;53.210;5.772;2023-02-28T05:24:17;5.30;88.10
56478;DHT22;42382;53.210;5.772;2023-02-28T05:26:50;5.40;88.20
56478;DHT22;42382;53.210;5.772;2023-02-28T05:29:16;5.40;88.10
56478;DHT22;42382;53.210;5.772;2023-02-28T05:31:42;5.40;88.00
56478;DHT22;42382;53.210;5.772;2023-02-28T05:34:08;5.40;88.00
56478;DHT22;42382;53.210;5.772;2023-02-28T05:36:37;5.40;88.10
56478;DHT22;42382;53.210;5.772;2023-02-28T05:39:02;5.40;88.20
56478;DHT22;42382;53.210;5.772;2023-02-28T05:41:28;5.40;88.00
56478;DHT22;42382;53.210;5.772;2023-02-28T05:43:54;5.40;88.20
56478;DHT22;42382;53.210;5.772;2023-02-28T05:46:20;5.40;88.20
56478;DHT22;42382;53.210;5.772;2023-02-28T05:48:47;5.40;88.20
56478;DHT22;42382;53.210;5.772;2023-02-28T05:51:13;5.50;88.20
56478;DHT22;42382;53.210;5.772;2023-02-28T05:53:38;5.40;88.30
56478;DHT22;42382;53.210;5.772;2023-02-28T05:56:04;5.40;88.30
56478;DHT22;42382;53.210;5.772;2023-02-28T05:58:30;5.40;88.30
56478;DHT22;42382;53.210;5.772;2023-02-28T06:01:00;5.40;88.40
56478;DHT22;42382;53.210;5.772;2023-02-28T06:03:27;5.40;88.50
56478;DHT22;42382;53.210;5.772;2023-02-28T06:05:53;5.50;88.40
56478;DHT22;42382;53.210;5.772;2023-02-28T06:08:18;5.50;88.50
56478;DHT22;42382;53.210;5.772;2023-02-28T06:10:44;5.40;88.50
56478;DHT22;42382;53.210;5.772;2023-02-28T06:13:10;5.50;88.60
56478;DHT22;42382;53.210;5.772;2023-02-28T06:15:37;5.50;88.60
56478;DHT22;42382;53.210;5.772;2023-02-28T06:18:03;5.50;88.60
56478;DHT22;42382;53.210;5.772;2023-02-28T06:20:29;5.50;88.60
56478;DHT22;42382;53.210;5.772;2023-02-28T06:22:56;5.50;88.60
56478;DHT22;42382;53.210;5.772;2023-02-28T06:25:24;5.50;88.60
56478;DHT22;42382;53.210;5.772;2023-02-28T06:27:50;5.50;88.60
56478;DHT22;42382;53.210;5.772;2023-02-28T06:30:16;5.50;88.70
56478;DHT22;42382;53.210;5.772;2023-02-28T06:32:41;5.50;88.60
56478;DHT22;42382;53.210;5.772;2023-02-28T06:35:07;5.50;88.80
56478;DHT22;42382;53.210;5.772;2023-02-28T06:37:33;5.50;88.80
56478;DHT22;42382;53.210;5.772;2023-02-28T06:39:58;5.40;88.80
56478;DHT22;42382;53.210;5.772;2023-02-28T06:42:25;5.40;88.70
56478;DHT22;42382;53.210;5.772;2023-02-28T06:44:56;5.30;88.80
56478;DHT22;42382;53.210;5.772;2023-02-28T06:47:21;5.30;88.60
56478;DHT22;42382;53.210;5.772;2023-02-28T06:49:48;5.10;88.60
56478;DHT22;42382;53.210;5.772;2023-02-28T06:52:14;5.10;88.70
56478;DHT22;42382;53.210;5.772;2023-02-28T06:54:39;4.90;88.40
56478;DHT22;42382;53.210;5.772;2023-02-28T06:57:05;4.90;88.50
56478;DHT22;42382;53.210;5.772;2023-02-28T06:59:31;4.70;88.50
56478;DHT22;42382;53.210;5.772;2023-02-28T07:01:56;4.70;88.60
56478;DHT22;42382;53.210;5.772;2023-02-28T07:04:22;4.60;88.60
56478;DHT22;42382;53.210;5.772;2023-02-28T07:06:47;4.60;88.60
56478;DHT22;42382;53.210;5.772;2023-02-28T07:09:13;4.50;88.60
56478;DHT22;42382;53.210;5.772;2023-02-28T07:11:39;4.50;88.60
56478;DHT22;42382;53.210;5.772;2023-02-28T07:14:06;4.40;88.70
56478;DHT22;42382;53.210;5.772;2023-02-28T07:16:32;4.40;88.70
56478;DHT22;42382;53.210;5.772;2023-02-28T07:18:58;4.30;88.70
56478;DHT22;42382;53.210;5.772;2023-02-28T07:21:23;4.30;88.60
56478;DHT22;42382;53.210;5.772;2023-02-28T07:23:49;4.30;88.70
56478;DHT22;42382;53.210;5.772;2023-02-28T07:26:17;4.10;88.50
56478;DHT22;42382;53.210;5.772;2023-02-28T07:28:44;4.10;88.50
56478;DHT22;42382;53.210;5.772;2023-02-28T07:31:11;4.00;88.30
56478;DHT22;42382;53.210;5.772;2023-02-28T07:33:36;4.00;88.50
56478;DHT22;42382;53.210;5.772;2023-02-28T07:36:05;3.90;88.60
56478;DHT22;42382;53.210;5.772;2023-02-28T07:38:33;4.00;88.60
56478;DHT22;42382;53.210;5.772;2023-02-28T07:40:58;3.90;88.50
56478;DHT22;42382;53.210;5.772;2023-02-28T07:43:24;3.90;88.70
56478;DHT22;42382;53.210;5.772;2023-02-28T07:45:50;3.80;88.60
56478;DHT22;42382;53.210;5.772;2023-02-28T07:48:15;3.80;88.60
56478;DHT22;42382;53.210;5.772;2023-02-28T07:50:41;3.70;88.70
56478;DHT22;42382;53.210;5.772;2023-02-28T07:53:07;3.70;88.70
56478;DHT22;42382;53.210;5.772;2023-02-28T07:55:32;3.70;88.80
56478;DHT22;42382;53.210;5.772;2023-02-28T07:57:58;3.70;88.80
56478;DHT22;42382;53.210;5.772;2023-02-28T08:00:24;3.80;89.00
56478;DHT22;42382;53.210;5.772;2023-02-28T08:02:50;3.80;89.00
56478;DHT22;42382;53.210;5.772;2023-02-28T08:05:16;3.80;89.10
56478;DHT22;42382;53.210;5.772;2023-02-28T08:07:42;3.80;89.10
56478;DHT22;42382;53.210;5.772;2023-02-28T08:10:08;3.70;89.10
56478;DHT22;42382;53.210;5.772;2023-02-28T08:12:35;3.70;89.10
56478;DHT22;42382;53.210;5.772;2023-02-28T08:15:01;3.70;89.10
56478;DHT22;42382;53.210;5.772;2023-02-28T08:17:26;3.70;89.20
56478;DHT22;42382;53.210;5.772;2023-02-28T08:19:52;3.70;89.20
56478;DHT22;42382;53.210;5.772;2023-02-28T08:22:18;3.70;89.20
56478;DHT22;42382;53.210;5.772;2023-02-28T08:24:43;3.70;89.20
56478;DHT22;42382;53.210;5.772;2023-02-28T08:27:09;3.70;89.20
56478;DHT22;42382;53.210;5.772;2023-02-28T08:29:37;3.70;89.30
56478;DHT22;42382;53.210;5.772;2023-02-28T08:32:04;3.80;89.40
56478;DHT22;42382;53.210;5.772;2023-02-28T08:34:30;3.80;89.40
56478;DHT22;42382;53.210;5.772;2023-02-28T08:36:55;3.90;89.50
56478;DHT22;42382;53.210;5.772;2023-02-28T08:39:21;3.90;89.30
56478;DHT22;42382;53.210;5.772;2023-02-28T08:41:47;3.90;89.30
56478;DHT22;42382;53.210;5.772;2023-02-28T08:44:12;3.90;89.30
56478;DHT22;42382;53.210;5.772;2023-02-28T08:46:38;4.00;89.30
56478;DHT22;42382;53.210;5.772;2023-02-28T08:49:04;3.90;89.20
56478;DHT22;42382;53.210;5.772;2023-02-28T08:51:30;4.00;89.20
56478;DHT22;42382;53.210;5.772;2023-02-28T08:53:58;4.00;89.20
56478;DHT22;42382;53.210;5.772;2023-02-28T08:56:26;4.00;89.20
56478;DHT22;42382;53.210;5.772;2023-02-28T08:58:54;4.10;89.20
56478;DHT22;42382;53.210;5.772;2023-02-28T09:01:23;4.10;89.30
56478;DHT22;42382;53.210;5.772;2023-02-28T09:03:50;4.10;89.20
56478;DHT22;42382;53.210;5.772;2023-02-28T09:06:17;4.10;89.20
56478;DHT22;42382;53.210;5.772;2023-02-28T09:08:43;4.10;89.20
56478;DHT22;42382;53.210;5.772;2023-02-28T09:11:09;4.20;89.30
56478;DHT22;42382;53.210;5.772;2023-02-28T09:13:36;4.30;89.20
56478;DHT22;42382;53.210;5.772;2023-02-28T09:16:04;4.30;89.10
56478;DHT22;42382;53.210;5.772;2023-02-28T09:18:30;4.30;89.20
56478;DHT22;42382;53.210;5.772;2023-02-28T09:20:56;4.30;89.10
56478;DHT22;42382;53.210;5.772;2023-02-28T09:23:23;4.40;89.20
56478;DHT22;42382;53.210;5.772;2023-02-28T09:25:51;4.50;89.10
56478;DHT22;42382;53.210;5.772;2023-02-28T09:28:18;4.50;89.00
56478;DHT22;42382;53.210;5.772;2023-02-28T09:30:46;4.50;89.00
56478;DHT22;42382;53.210;5.772;2023-02-28T09:33:13;4.60;88.90
56478;DHT22;42382;53.210;5.772;2023-02-28T09:35:39;4.70;89.00
56478;DHT22;42382;53.210;5.772;2023-02-28T09:38:04;4.70;88.70
56478;DHT22;42382;53.210;5.772;2023-02-28T09:40:31;4.70;88.50
56478;DHT22;42382;53.210;5.772;2023-02-28T09:42:59;4.80;88.60
56478;DHT22;42382;53.210;5.772;2023-02-28T09:45:42;4.90;88.20
56478;DHT22;42382;53.210;5.772;2023-02-28T09:48:14;5.10;88.50
56478;DHT22;42382;53.210;5.772;2023-02-28T09:50:48;5.10;88.30
56478;DHT22;42382;53.210;5.772;2023-02-28T09:53:22;5.10;87.90
56478;DHT22;42382;53.210;5.772;2023-02-28T09:55:55;5.30;88.20
56478;DHT22;42382;53.210;5.772;2023-02-28T09:58:33;5.30;87.60
56478;DHT22;42382;53.210;5.772;2023-02-28T10:01:06;5.30;87.50
56478;DHT22;42382;53.210;5.772;2023-02-28T10:03:43;5.30;87.50
56478;DHT22;42382;53.210;5.772;2023-02-28T10:06:17;5.40;87.60
56478;DHT22;42382;53.210;5.772;2023-02-28T10:08:52;5.40;87.30
56478;DHT22;42382;53.210;5.772;2023-02-28T10:11:22;5.50;87.30
56478;DHT22;42382;53.210;5.772;2023-02-28T10:14:02;5.50;87.20
56478;DHT22;42382;53.210;5.772;2023-02-28T10:16:43;5.60;87.30
56478;DHT22;42382;53.210;5.772;2023-02-28T10:21:49;5.80;86.50
56478;DHT22;42382;53.210;5.772;2023-02-28T10:24:23;5.80;86.40
56478;DHT22;42382;53.210;5.772;2023-02-28T10:26:52;5.90;86.10
56478;DHT22;42382;53.210;5.772;2023-02-28T10:29:21;6.40;85.90
56478;DHT22;42382;53.210;5.772;2023-02-28T10:31:47;6.70;85.50
56478;DHT22;42382;53.210;5.772;2023-02-28T10:34:12;6.70;84.70
56478;DHT22;42382;53.210;5.772;2023-02-28T10:36:38;6.70;84.00
56478;DHT22;42382;53.210;5.772;2023-02-28T10:42:29;6.80;83.30
56478;DHT22;42382;53.210;5.772;2023-02-28T10:45:04;7.00;82.90
56478;DHT22;42382;53.210;5.772;2023-02-28T10:47:30;7.30;82.30
56478;DHT22;42382;53.210;5.772;2023-02-28T10:49:57;7.50;81.30
56478;DHT22;42382;53.210;5.772;2023-02-28T10:52:39;7.90;81.40
56478;DHT22;42382;53.210;5.772;2023-02-28T10:55:25;8.50;80.30
56478;DHT22;42382;53.210;5.772;2023-02-28T10:57:51;9.50;76.90
56478;DHT22;42382;53.210;5.772;2023-02-28T11:00:24;10.80;75.80
56478;DHT22;42382;53.210;5.772;2023-02-28T11:02:53;11.80;71.80
56478;DHT22;42382;53.210;5.772;2023-02-28T11:05:31;12.00;69.00
56478;DHT22;42382;53.210;5.772;2023-02-28T11:10:31;10.90;67.20
56478;DHT22;42382;53.210;5.772;2023-02-28T11:13:00;10.20;68.30
56478;DHT22;42382;53.210;5.772;2023-02-28T11:15:26;9.80;69.50
56478;DHT22;42382;53.210;5.772;2023-02-28T11:17:56;9.60;70.30
56478;DHT22;42382;53.210;5.772;2023-02-28T11:20:26;9.30;70.70
56478;DHT22;42382;53.210;5.772;2023-02-28T11:22:54;9.10;69.10
56478;DHT22;42382;53.210;5.772;2023-02-28T11:25:36;8.90;69.70
56478;DHT22;42382;53.210;5.772;2023-02-28T11:28:29;8.90;69.90
56478;DHT22;42382;53.210;5.772;2023-02-28T11:31:05;9.10;69.80
56478;DHT22;42382;53.210;5.772;2023-02-28T11:33:56;9.20;69.90
56478;DHT22;42382;53.210;5.772;2023-02-28T11:36:23;9.40;69.50
56478;DHT22;42382;53.210;5.772;2023-02-28T11:38:54;9.70;69.10
56478;DHT22;42382;53.210;5.772;2023-02-28T11:41:35;10.40;68.30
56478;DHT22;42382;53.210;5.772;2023-02-28T11:44:17;11.80;64.00
56478;DHT22;42382;53.210;5.772;2023-02-28T11:46:49;12.70;61.50
56478;DHT22;42382;53.210;5.772;2023-02-28T11:52:21;11.50;59.80
56478;DHT22;42382;53.210;5.772;2023-02-28T11:55:01;11.10;61.70
56478;DHT22;42382;53.210;5.772;2023-02-28T11:57:31;10.70;61.50
56478;DHT22;42382;53.210;5.772;2023-02-28T12:00:08;10.90;62.60
56478;DHT22;42382;53.210;5.772;2023-02-28T12:02:55;11.50;62.10
56478;DHT22;42382;53.210;5.772;2023-02-28T12:08:22;12.30;58.80
56478;DHT22;42382;53.210;5.772;2023-02-28T12:11:28;11.90;59.00
56478;DHT22;42382;53.210;5.772;2023-02-28T12:16:29;11.10;60.40
56478;DHT22;42382;53.210;5.772;2023-02-28T12:19:19;10.80;60.60
56478;DHT22;42382;53.210;5.772;2023-02-28T12:22:21;10.50;60.40
56478;DHT22;42382;53.210;5.772;2023-02-28T12:24:54;10.20;60.70
56478;DHT22;42382;53.210;5.772;2023-02-28T12:27:23;10.00;62.60
56478;DHT22;42382;53.210;5.772;2023-02-28T12:29:54;10.00;61.10
56478;DHT22;42382;53.210;5.772;2023-02-28T12:32:27;9.90;62.20
56478;DHT22;42382;53.210;5.772;2023-02-28T12:35:01;9.90;61.90
56478;DHT22;42382;53.210;5.772;2023-02-28T12:37:49;9.90;62.60
56478;DHT22;42382;53.210;5.772;2023-02-28T12:40:21;9.90;61.90
56478;DHT22;42382;53.210;5.772;2023-02-28T12:43:00;9.80;63.80
56478;DHT22;42382;53.210;5.772;2023-02-28T12:45:43;9.70;63.50
56478;DHT22;42382;53.210;5.772;2023-02-28T12:48:13;9.60;64.00
56478;DHT22;42382;53.210;5.772;2023-02-28T12:50:40;9.60;64.90
56478;DHT22;42382;53.210;5.772;2023-02-28T12:53:18;9.60;65.20
56478;DHT22;42382;53.210;5.772;2023-02-28T12:55:58;9.60;64.30
56478;DHT22;42382;53.210;5.772;2023-02-28T12:58:38;9.70;63.70
56478;DHT22;42382;53.210;5.772;2023-02-28T13:09:13;9.50;62.40
56478;DHT22;42382;53.210;5.772;2023-02-28T13:11:45;9.40;62.40
56478;DHT22;42382;53.210;5.772;2023-02-28T13:16:55;9.10;63.10
56478;DHT22;42382;53.210;5.772;2023-02-28T13:19:22;9.10;63.10
56478;DHT22;42382;53.210;5.772;2023-02-28T13:21:48;9.10;63.30
56478;DHT22;42382;53.210;5.772;2023-02-28T13:24:37;9.10;62.00
56478;DHT22;42382;53.210;5.772;2023-02-28T13:34:27;8.90;62.60
56478;DHT22;42382;53.210;5.772;2023-02-28T13:37:20;8.90;63.80
56478;DHT22;42382;53.210;5.772;2023-02-28T13:47:51;8.80;64.10
56478;DHT22;42382;53.210;5.772;2023-02-28T13:55:23;8.60;64.20
56478;DHT22;42382;53.210;5.772;2023-02-28T14:03:22;8.50;64.70
56478;DHT22;42382;53.210;5.772;2023-02-28T14:08:37;8.40;64.70
56478;DHT22;42382;53.210;5.772;2023-02-28T14:11:15;8.40;65.20
56478;DHT22;42382;53.210;5.772;2023-02-28T14:13:48;8.40;65.20
56478;DHT22;42382;53.210;5.772;2023-02-28T14:16:14;8.40;65.30
56478;DHT22;42382;53.210;5.772;2023-02-28T14:18:42;8.40;65.30
56478;DHT22;42382;53.210;5.772;2023-02-28T14:26:53;8.40;65.80
56478;DHT22;42382;53.210;5.772;2023-02-28T14:35:21;8.20;65.70
56478;DHT22;42382;53.210;5.772;2023-02-28T14:37:53;8.10;65.70
56478;DHT22;42382;53.210;5.772;2023-02-28T14:40:32;8.20;66.10
56478;DHT22;42382;53.210;5.772;2023-02-28T14:43:01;8.30;66.50
56478;DHT22;42382;53.210;5.772;2023-02-28T14:45:29;8.40;66.30
56478;DHT22;42382;53.210;5.772;2023-02-28T14:47:55;8.40;65.60
56478;DHT22;42382;53.210;5.772;2023-02-28T14:50:24;8.50;65.80
56478;DHT22;42382;53.210;5.772;2023-02-28T14:52:52;8.50;66.00
56478;DHT22;42382;53.210;5.772;2023-02-28T14:55:19;8.40;64.50
56478;DHT22;42382;53.210;5.772;2023-02-28T14:58:19;8.40;65.40
56478;DHT22;42382;53.210;5.772;2023-02-28T15:00:48;8.40;64.70
56478;DHT22;42382;53.210;5.772;2023-02-28T15:03:32;8.30;65.30
56478;DHT22;42382;53.210;5.772;2023-02-28T15:06:04;8.40;65.40
56478;DHT22;42382;53.210;5.772;2023-02-28T15:08:31;8.40;65.70
56478;DHT22;42382;53.210;5.772;2023-02-28T15:11:16;8.50;65.80
56478;DHT22;42382;53.210;5.772;2023-02-28T15:13:48;8.50;66.10
56478;DHT22;42382;53.210;5.772;2023-02-28T15:16:25;8.80;65.60
56478;DHT22;42382;53.210;5.772;2023-02-28T15:18:56;9.10;64.60
56478;DHT22;42382;53.210;5.772;2023-02-28T15:21:26;9.30;64.30
56478;DHT22;42382;53.210;5.772;2023-02-28T15:23:58;9.40;63.80
56478;DHT22;42382;53.210;5.772;2023-02-28T15:26:32;9.30;63.70
56478;DHT22;42382;53.210;5.772;2023-02-28T15:29:00;9.10;63.20
56478;DHT22;42382;53.210;5.772;2023-02-28T15:31:35;9.00;62.70
56478;DHT22;42382;53.210;5.772;2023-02-28T15:34:06;8.90;62.00
56478;DHT22;42382;53.210;5.772;2023-02-28T15:36:34;8.80;63.50
56478;DHT22;42382;53.210;5.772;2023-02-28T15:39:16;8.70;63.00
56478;DHT22;42382;53.210;5.772;2023-02-28T15:41:43;8.50;63.00
56478;DHT22;42382;53.210;5.772;2023-02-28T15:44:26;8.40;63.90
56478;DHT22;42382;53.210;5.772;2023-02-28T15:46:58;8.30;65.70
56478;DHT22;42382;53.210;5.772;2023-02-28T15:49:24;8.20;67.10
56478;DHT22;42382;53.210;5.772;2023-02-28T15:51:51;8.10;68.30
56478;DHT22;42382;53.210;5.772;2023-02-28T15:54:29;8.00;69.00
56478;DHT22;42382;53.210;5.772;2023-02-28T15:56:57;8.00;70.00
56478;DHT22;42382;53.210;5.772;2023-02-28T15:59:28;7.90;70.90
56478;DHT22;42382;53.210;5.772;2023-02-28T16:02:18;7.80;71.50
56478;DHT22;42382;53.210;5.772;2023-02-28T16:07:38;7.70;71.90
56478;DHT22;42382;53.210;5.772;2023-02-28T16:10:05;7.60;72.40
56478;DHT22;42382;53.210;5.772;2023-02-28T16:12:33;7.50;72.80
56478;DHT22;42382;53.210;5.772;2023-02-28T16:15:03;7.40;72.80
56478;DHT22;42382;53.210;5.772;2023-02-28T16:17:35;7.40;73.20
56478;DHT22;42382;53.210;5.772;2023-02-28T16:20:19;7.30;73.30
56478;DHT22;42382;53.210;5.772;2023-02-28T16:22:45;7.20;73.50
56478;DHT22;42382;53.210;5.772;2023-02-28T16:25:16;7.10;73.70
56478;DHT22;42382;53.210;5.772;2023-02-28T16:27:43;7.00;73.80
56478;DHT22;42382;53.210;5.772;2023-02-28T16:30:19;6.90;74.00
56478;DHT22;42382;53.210;5.772;2023-02-28T16:32:45;6.90;74.30
56478;DHT22;42382;53.210;5.772;2023-02-28T16:35:11;6.80;74.30
56478;DHT22;42382;53.210;5.772;2023-02-28T16:37:37;6.80;74.70
56478;DHT22;42382;53.210;5.772;2023-02-28T16:40:03;6.70;74.70
56478;DHT22;42382;53.210;5.772;2023-02-28T16:42:31;6.70;74.80
56478;DHT22;42382;53.210;5.772;2023-02-28T16:44:57;6.60;75.00
56478;DHT22;42382;53.210;5.772;2023-02-28T16:47:23;6.60;75.10
56478;DHT22;42382;53.210;5.772;2023-02-28T16:49:49;6.50;75.30
56478;DHT22;42382;53.210;5.772;2023-02-28T16:52:15;6.40;75.40
56478;DHT22;42382;53.210;5.772;2023-02-28T16:54:41;6.40;75.50
56478;DHT22;42382;53.210;5.772;2023-02-28T16:57:20;6.40;75.70
56478;DHT22;42382;53.210;5.772;2023-02-28T16:59:47;6.30;75.90
56478;DHT22;42382;53.210;5.772;2023-02-28T17:02:15;6.30;75.90
56478;DHT22;42382;53.210;5.772;2023-02-28T17:04:41;6.20;76.10
56478;DHT22;42382;53.210;5.772;2023-02-28T17:07:14;6.20;76.30
56478;DHT22;42382;53.210;5.772;2023-02-28T17:09:41;6.10;76.30
56478;DHT22;42382;53.210;5.772;2023-02-28T17:12:06;6.10;76.60
56478;DHT22;42382;53.210;5.772;2023-02-28T17:14:32;6.00;76.70
56478;DHT22;42382;53.210;5.772;2023-02-28T17:16:58;6.00;76.80
56478;DHT22;42382;53.210;5.772;2023-02-28T17:19:24;5.90;77.00
56478;DHT22;42382;53.210;5.772;2023-02-28T17:21:49;5.90;77.00
56478;DHT22;42382;53.210;5.772;2023-02-28T17:24:15;5.80;77.20
56478;DHT22;42382;53.210;5.772;2023-02-28T17:26:40;5.80;77.40
56478;DHT22;42382;53.210;5.772;2023-02-28T17:29:16;5.70;77.50
56478;DHT22;42382;53.210;5.772;2023-02-28T17:31:42;5.70;77.70
56478;DHT22;42382;53.210;5.772;2023-02-28T17:34:08;5.60;78.00
56478;DHT22;42382;53.210;5.772;2023-02-28T17:36:33;5.60;78.10
56478;DHT22;42382;53.210;5.772;2023-02-28T17:38:59;5.50;78.20
56478;DHT22;42382;53.210;5.772;2023-02-28T17:41:24;5.40;78.40
56478;DHT22;42382;53.210;5.772;2023-02-28T17:43:51;5.40;78.50
56478;DHT22;42382;53.210;5.772;2023-02-28T17:46:18;5.40;78.60
56478;DHT22;42382;53.210;5.772;2023-02-28T17:48:49;5.30;78.90